Aérodrome :
LOGIN :

S'inscrire | Disclaimer

   EN    FR    IT 

 










Légende :    VFR   VFR Marginal   IFR   IFR Intensif   IFR Très Intensif
Visi : 
Plafond : 
>= 8 km
>= 3000ft
5 à 8 km
1000 à 3000 ft
1500m à 5 km
500 à 1000 ft
800 à 1500m
200 à 500 ft
< 800m
< 200 ft
Symboles :   Orages  Brouillard  Fortes neiges  Fortes précipitations  Vent > 20 kt
SIGMETs :   Divers  Orages  Givrage  Turbulence  Onde Orograph.  Cendres Volcan.







- Altitude de l'aérodrome : 74 ft
- Code IATA : MRS
- Voir les cartes d'approche


LFML - Marseille / Marignane

DERNIER METAR :
  • 230230Z AUTO VRB02KT 9999 BKN018 OVC024 23/18 Q1016 NOSIG

METARs EXPIRÉS :
  • 230200Z AUTO 10001KT 9999 BKN018 BKN023 BKN076 23/19 Q1016 TEMPO BKN013
  • 230130Z AUTO 15002KT 9999 FEW019 BKN072 23/19 Q1016 TEMPO BKN013
  • 230100Z AUTO 14003KT 9999 FEW021 SCT029 BKN070 23/19 Q1017 TEMPO BKN013
  • 230030Z AUTO 16002KT 9999 BKN028 BKN076 23/19 Q1017 TEMPO BKN013
  • 230000Z AUTO 16002KT CAVOK 23/19 Q1017 NOSIG

TAF TAF LFML
Valide du 23 à 03h jusqu'au 24 à 09h UTC


230200Z 2303/2409 VRB03KT 9999 FEW020
TEMPO 2303/2305 BKN015
BECMG 2308/2310 27010KT CAVOK
TEMPO 2315/2320 22012KT
PROB40
TEMPO 2320/2322 24023G33KT
TEMPO 2322/2324 VRB03KT
BECMG 2400/2402 30017KT TX33/2313Z TN22/2305Z
ATIS : +33 4 42 31 15 15
Pas de NOTAMs connus pour ce terrain.



MET'MAP, la Météo Aéronautique d'un coup d'oeil ! - Copyright ORBIFLY Décembre 2007 - Disclaimer

ORBIFLY MET'MAP TEAM :

Programmation & Développement : Alexandra Zaïnal
Conception & Développement : Baudouin d'Aumeries
Co-Programmation & Développement : Marc-Olivier Méhu
Soutien technique & logistique : Manuel Goepfert

Contact : metmap@orbifly.com




SOURCES & CREDITS :

   NOAA